createdAt,value
2022-09-24T00:02:00.601Z,65.14
2022-09-24T00:04:29.766Z,65.11
2022-09-24T00:06:59.053Z,65.12
2022-09-24T00:09:29.411Z,65.14
2022-09-24T00:11:58.460Z,65.07
2022-09-24T00:14:27.612Z,65.13
2022-09-24T00:16:56.693Z,65.02
2022-09-24T00:19:25.831Z,65.15
2022-09-24T00:21:55.149Z,65.18
2022-09-24T00:24:40.534Z,65.21
2022-09-24T00:27:11.175Z,65.10
2022-09-24T00:29:40.111Z,65.27
2022-09-24T00:32:10.416Z,65.00
2022-09-24T00:34:39.776Z,65.09
2022-09-24T00:37:09.147Z,65.17
2022-09-24T00:39:38.565Z,65.04
2022-09-24T00:42:07.810Z,65.04
2022-09-24T00:44:57.883Z,65.20
2022-09-24T00:47:31.500Z,65.14
2022-09-24T00:50:14.413Z,65.02
2022-09-24T00:52:48.217Z,65.29
2022-09-24T00:55:19.919Z,65.19
2022-09-24T00:57:50.283Z,65.02
2022-09-24T01:00:22.042Z,65.07
2022-09-24T01:02:56.115Z,65.12
2022-09-24T01:05:25.175Z,65.08
2022-09-24T01:07:55.093Z,65.03
2022-09-24T01:10:43.016Z,65.12
2022-09-24T01:13:22.467Z,65.22
2022-09-24T01:16:00.689Z,65.25
2022-09-24T01:18:39.256Z,65.21
2022-09-24T01:21:25.387Z,65.15
2022-09-24T01:24:18.507Z,65.27
2022-09-24T01:27:03.205Z,65.31
2022-09-24T01:29:47.089Z,65.17
2022-09-24T01:32:26.689Z,65.25
2022-09-24T01:35:03.810Z,65.10
2022-09-24T01:37:36.428Z,65.31
2022-09-24T01:40:08.789Z,65.08
2022-09-24T01:42:41.527Z,65.16
2022-09-24T01:45:13.864Z,65.20
2022-09-24T01:47:43.827Z,65.18
2022-09-24T01:50:16.646Z,65.27
2022-09-24T01:52:50.164Z,65.37
2022-09-24T01:55:24.612Z,65.46
2022-09-24T01:57:57.568Z,65.28
2022-09-24T02:00:28.774Z,65.36
2022-09-24T02:03:02.307Z,65.52
2022-09-24T02:05:35.567Z,65.66
2022-09-24T02:08:10.156Z,65.64
2022-09-24T02:10:46.952Z,65.61
2022-09-24T02:13:18.955Z,65.68
2022-09-24T02:15:55.354Z,65.61
2022-09-24T02:18:29.643Z,65.53
2022-09-24T02:21:04.317Z,65.60
2022-09-24T02:23:38.229Z,65.68
2022-09-24T02:26:08.056Z,65.52
2022-09-24T02:28:36.993Z,65.67
2022-09-24T02:31:30.269Z,65.75
2022-09-24T02:34:20.535Z,65.89
2022-09-24T02:36:51.725Z,65.64
2022-09-24T02:39:21.308Z,65.97
2022-09-24T02:41:52.898Z,65.90
2022-09-24T02:44:22.845Z,66.03
2022-09-24T02:46:53.466Z,66.03
2022-09-24T02:49:22.451Z,66.18
2022-09-24T02:51:51.594Z,66.09
2022-09-24T02:54:20.588Z,66.21
2022-09-24T02:56:49.566Z,66.39
2022-09-24T02:59:19.273Z,66.38
2022-09-24T03:01:48.375Z,66.31
2022-09-24T03:04:18.973Z,66.25
2022-09-24T03:06:48.170Z,66.32
2022-09-24T03:09:17.298Z,66.43
2022-09-24T03:11:46.512Z,66.47
2022-09-24T03:14:15.744Z,66.50
2022-09-24T03:16:44.668Z,66.47
2022-09-24T03:19:13.588Z,66.51
2022-09-24T03:21:44.317Z,66.55
2022-09-24T03:24:13.258Z,66.74
2022-09-24T03:26:42.203Z,66.84
2022-09-24T03:29:11.498Z,66.93
2022-09-24T03:31:39.524Z,67.04
2022-09-24T03:34:08.678Z,67.00
2022-09-24T03:36:37.892Z,66.95
2022-09-24T03:39:08.192Z,66.93
2022-09-24T03:41:37.181Z,67.10
2022-09-24T03:44:06.463Z,66.77
2022-09-24T03:46:35.699Z,66.89
2022-09-24T03:49:04.762Z,66.94
2022-09-24T03:51:33.926Z,66.82
2022-09-24T03:54:02.878Z,66.96
2022-09-24T03:56:33.213Z,66.94
2022-09-24T03:59:02.406Z,67.12
2022-09-24T04:01:32.570Z,67.11
2022-09-24T04:04:03.315Z,67.34
2022-09-24T04:06:32.820Z,67.24
2022-09-24T04:09:01.758Z,67.34
2022-09-24T04:11:35.212Z,67.31
2022-09-24T04:14:04.408Z,67.27
2022-09-24T04:16:33.496Z,67.48
2022-09-24T04:19:02.517Z,67.50
2022-09-24T04:21:31.865Z,67.55
2022-09-24T04:24:00.844Z,67.54
2022-09-24T04:26:29.850Z,67.72
2022-09-24T04:29:00.399Z,67.68
2022-09-24T04:31:29.493Z,67.41
2022-09-24T04:33:58.599Z,67.49
2022-09-24T04:36:27.946Z,67.40
2022-09-24T04:38:57.552Z,67.42
2022-09-24T04:41:26.539Z,67.48
2022-09-24T04:43:55.699Z,67.58
2022-09-24T04:46:26.060Z,67.68
2022-09-24T04:48:55.152Z,67.78
2022-09-24T04:51:24.321Z,67.79
2022-09-24T04:53:53.394Z,68.05
2022-09-24T04:56:22.372Z,67.80
2022-09-24T04:58:52.837Z,67.94
2022-09-24T05:01:22.338Z,67.79
2022-09-24T05:03:53.287Z,67.91
2022-09-24T05:06:22.452Z,67.75
2022-09-24T05:08:51.563Z,67.76
2022-09-24T05:11:20.605Z,67.84
2022-09-24T05:13:49.762Z,67.66
2022-09-24T05:16:18.719Z,67.71
2022-09-24T05:18:47.844Z,67.77
2022-09-24T05:21:18.576Z,67.63
2022-09-24T05:23:47.497Z,67.68
2022-09-24T05:26:33.830Z,67.47
2022-09-24T05:29:03.210Z,67.71
2022-09-24T05:31:32.556Z,67.53
2022-09-24T05:34:01.545Z,67.98
2022-09-24T05:36:32.214Z,67.81
2022-09-24T05:39:01.598Z,68.09
2022-09-24T05:41:30.628Z,68.00
2022-09-24T05:43:59.836Z,68.01
2022-09-24T05:46:29.488Z,68.17
2022-09-24T05:48:58.648Z,68.07
2022-09-24T05:51:28.095Z,68.02
2022-09-24T05:53:58.401Z,68.04
2022-09-24T05:56:27.291Z,68.17
2022-09-24T05:58:56.428Z,68.35
2022-09-24T06:01:25.697Z,68.31
2022-09-24T06:03:54.670Z,68.28
2022-09-24T06:06:23.852Z,68.21
2022-09-24T06:08:53.428Z,68.33
2022-09-24T06:11:24.065Z,68.60
2022-09-24T06:13:53.252Z,68.48
2022-09-24T06:16:22.295Z,68.52
2022-09-24T06:18:51.599Z,68.72
2022-09-24T06:21:21.245Z,68.90
2022-09-24T06:23:50.698Z,68.77
2022-09-24T06:26:20.046Z,68.70
2022-09-24T06:28:50.583Z,69.06
2022-09-24T06:31:19.580Z,69.20
2022-09-24T06:33:48.656Z,69.14
2022-09-24T06:36:17.842Z,69.28
2022-09-24T06:38:46.920Z,69.49
2022-09-24T06:41:15.887Z,69.44
2022-09-24T06:43:45.210Z,69.51
2022-09-24T06:46:15.744Z,69.53
2022-09-24T06:48:44.916Z,69.66
2022-09-24T06:51:14.048Z,69.82
2022-09-24T06:53:43.066Z,69.70
2022-09-24T06:56:12.962Z,69.77
2022-09-24T06:58:43.747Z,69.92
2022-09-24T07:01:14.438Z,69.90
2022-09-24T07:03:43.826Z,70.03
2022-09-24T07:06:12.786Z,70.05
2022-09-24T07:08:41.686Z,70.29
2022-09-24T07:11:10.827Z,70.26
2022-09-24T07:13:39.746Z,70.38
2022-09-24T07:16:08.923Z,70.56
2022-09-24T07:18:39.535Z,70.51
2022-09-24T07:21:08.517Z,70.78
2022-09-24T07:23:37.612Z,70.91
2022-09-24T07:26:06.932Z,70.95
2022-09-24T07:28:35.925Z,71.06
2022-09-24T07:31:05.246Z,71.08
2022-09-24T07:33:34.589Z,71.14
2022-09-24T07:36:07.921Z,71.08
2022-09-24T07:38:37.382Z,71.24
2022-09-24T07:41:08.121Z,71.31
2022-09-24T07:43:37.074Z,71.39
2022-09-24T07:46:06.676Z,71.59
2022-09-24T07:48:35.816Z,71.36
2022-09-24T07:51:10.464Z,71.47
2022-09-24T07:53:39.715Z,71.49
2022-09-24T07:56:08.860Z,71.66
2022-09-24T07:58:37.815Z,71.74
2022-09-24T08:01:07.232Z,71.61
2022-09-24T08:03:36.952Z,71.68
2022-09-24T08:06:07.882Z,71.72
2022-09-24T08:08:38.983Z,71.70
2022-09-24T08:11:08.875Z,71.60
2022-09-24T08:13:38.389Z,71.66
2022-09-24T08:16:08.046Z,71.58
2022-09-24T08:18:37.129Z,71.57
2022-09-24T08:21:11.842Z,71.54
2022-09-24T08:23:41.654Z,71.59
2022-09-24T08:26:11.527Z,71.53
2022-09-24T08:28:42.310Z,71.49
2022-09-24T08:31:14.392Z,71.57
2022-09-24T08:33:43.964Z,71.57
2022-09-24T08:36:14.957Z,71.40
2022-09-24T08:38:44.137Z,71.45
2022-09-24T08:41:40.321Z,71.51
2022-09-24T08:44:15.696Z,71.59
2022-09-24T08:47:06.127Z,71.43
2022-09-24T08:49:40.258Z,71.44
2022-09-24T08:52:20.831Z,71.55
2022-09-24T08:54:52.172Z,71.45
2022-09-24T08:57:23.286Z,71.52
2022-09-24T08:59:54.390Z,71.51
2022-09-24T09:02:38.568Z,71.36
2022-09-24T09:05:20.812Z,71.21
2022-09-24T09:07:57.312Z,71.20
2022-09-24T09:10:31.427Z,71.09
2022-09-24T09:13:08.175Z,71.14
2022-09-24T09:15:42.023Z,70.99
2022-09-24T09:18:18.578Z,70.93
2022-09-24T09:20:50.391Z,70.89
2022-09-24T09:23:22.984Z,70.63
2022-09-24T09:25:56.602Z,70.46
2022-09-24T09:28:28.728Z,70.25
2022-09-24T09:31:11.281Z,70.18
2022-09-24T09:33:59.878Z,70.22
2022-09-24T09:36:39.618Z,70.21
2022-09-24T09:39:23.629Z,70.21
2022-09-24T09:42:00.199Z,70.10
2022-09-24T09:44:32.207Z,70.13
2022-09-24T09:47:12.912Z,69.69
2022-09-24T09:49:44.588Z,69.72
2022-09-24T09:52:17.220Z,69.89
2022-09-24T09:54:48.664Z,69.71
2022-09-24T09:57:21.914Z,69.37
2022-09-24T09:59:52.537Z,69.76
2022-09-24T10:02:27.086Z,69.43
2022-09-24T10:04:59.627Z,69.52
2022-09-24T10:07:29.135Z,69.48
2022-09-24T10:10:04.869Z,69.29
2022-09-24T10:12:34.087Z,69.14
2022-09-24T10:15:05.173Z,68.84
2022-09-24T10:17:38.043Z,68.38
2022-09-24T10:20:16.373Z,68.91
2022-09-24T10:22:51.154Z,68.60
2022-09-24T10:25:26.309Z,68.54
2022-09-24T10:28:18.292Z,67.45
2022-09-24T10:30:53.533Z,67.69
2022-09-24T10:33:22.824Z,67.77
2022-09-24T10:35:52.222Z,67.90
2022-09-24T10:38:25.124Z,67.91
2022-09-24T10:40:55.752Z,67.76
2022-09-24T10:43:24.905Z,67.48
2022-09-24T10:46:15.213Z,67.83
2022-09-24T10:48:46.596Z,68.04
2022-09-24T10:51:29.345Z,67.81
2022-09-24T10:54:26.346Z,67.70
2022-09-24T10:57:01.152Z,67.86
2022-09-24T10:59:46.217Z,67.94
2022-09-24T11:02:43.021Z,67.79
2022-09-24T11:05:17.180Z,67.91
2022-09-24T11:08:06.702Z,67.54
2022-09-24T11:10:57.550Z,67.74
2022-09-24T11:13:41.136Z,67.74
2022-09-24T11:16:40.324Z,67.92
2022-09-24T11:19:19.849Z,67.70
2022-09-24T11:22:04.255Z,67.96
2022-09-24T11:24:54.438Z,67.67
2022-09-24T11:27:46.352Z,67.77
2022-09-24T11:30:20.306Z,67.74
2022-09-24T11:33:22.817Z,67.89
2022-09-24T11:36:20.299Z,68.19
2022-09-24T11:39:11.818Z,67.86
2022-09-24T11:41:50.634Z,68.01
2022-09-24T11:44:45.649Z,67.53
2022-09-24T11:47:26.503Z,67.42
2022-09-24T11:50:16.104Z,67.59
2022-09-24T11:52:51.410Z,67.61
2022-09-24T11:55:23.760Z,67.84
2022-09-24T11:57:55.710Z,67.79
2022-09-24T12:00:29.689Z,67.76
2022-09-24T12:03:06.718Z,67.57
2022-09-24T12:05:39.712Z,67.84
2022-09-24T12:08:14.404Z,67.85
2022-09-24T12:10:49.417Z,67.68
2022-09-24T12:13:22.376Z,67.70
2022-09-24T12:15:56.347Z,67.57
2022-09-24T12:18:30.106Z,67.73
2022-09-24T12:21:02.903Z,67.42
2022-09-24T12:23:36.267Z,67.27
2022-09-24T12:26:07.780Z,67.12
2022-09-24T12:28:57.950Z,67.23
2022-09-24T12:31:49.591Z,67.47
2022-09-24T12:34:27.784Z,67.27
2022-09-24T12:37:04.389Z,67.52
2022-09-24T12:39:39.738Z,67.48
2022-09-24T12:42:12.434Z,67.35
2022-09-24T12:44:47.504Z,67.29
2022-09-24T12:47:21.653Z,67.22
2022-09-24T12:49:56.434Z,67.43
2022-09-24T12:52:29.355Z,67.17
2022-09-24T12:55:01.076Z,66.92
2022-09-24T12:57:35.851Z,67.20
2022-09-24T13:00:27.313Z,66.81
2022-09-24T13:02:56.708Z,66.50
2022-09-24T13:05:34.967Z,66.79
2022-09-24T13:08:24.720Z,66.61
2022-09-24T13:10:58.868Z,66.67
2022-09-24T13:13:31.821Z,66.50
2022-09-24T13:16:03.757Z,66.73
2022-09-24T13:18:35.442Z,66.44
2022-09-24T13:21:08.245Z,66.39
2022-09-24T13:23:48.941Z,66.40
2022-09-24T13:26:34.853Z,66.57
2022-09-24T13:29:06.015Z,66.37
2022-09-24T13:31:45.729Z,66.29
2022-09-24T13:34:20.762Z,66.28
2022-09-24T13:36:58.637Z,66.65
2022-09-24T13:39:36.144Z,66.74
2022-09-24T13:42:16.272Z,67.05
2022-09-24T13:44:49.094Z,67.15
2022-09-24T13:47:29.222Z,67.69
2022-09-24T13:50:09.856Z,67.79
2022-09-24T13:52:46.175Z,67.82
2022-09-24T13:55:22.386Z,68.12
2022-09-24T13:57:51.780Z,68.16
2022-09-24T14:00:24.512Z,68.06
2022-09-24T14:03:03.546Z,67.98
2022-09-24T14:05:37.124Z,68.16
2022-09-24T14:08:11.047Z,68.11
2022-09-24T14:10:41.128Z,68.21
2022-09-24T14:13:19.944Z,68.07
2022-09-24T14:15:56.791Z,68.23
2022-09-24T14:18:27.610Z,68.25
2022-09-24T14:21:04.156Z,68.40
2022-09-24T14:23:38.858Z,68.22
2022-09-24T14:26:09.615Z,68.12
2022-09-24T14:28:38.992Z,68.35
2022-09-24T14:31:10.246Z,67.97
2022-09-24T14:33:41.725Z,67.93
2022-09-24T14:36:13.872Z,67.89
2022-09-24T14:38:55.313Z,67.76
2022-09-24T14:41:29.109Z,67.74
2022-09-24T14:44:04.253Z,67.82
2022-09-24T14:46:36.479Z,67.98
2022-09-24T14:49:07.763Z,67.71
2022-09-24T14:51:37.911Z,67.76
2022-09-24T14:54:25.361Z,67.33
2022-09-24T14:56:54.491Z,67.42
2022-09-24T14:59:31.979Z,67.03
2022-09-24T15:02:19.473Z,66.73
2022-09-24T15:04:52.281Z,66.49
2022-09-24T15:07:25.156Z,66.53
2022-09-24T15:09:57.169Z,66.40
2022-09-24T15:12:31.396Z,66.41
2022-09-24T15:15:02.646Z,66.35
2022-09-24T15:17:35.874Z,66.37
2022-09-24T15:20:07.202Z,66.38
2022-09-24T15:22:38.912Z,66.65
2022-09-24T15:25:11.164Z,66.83
2022-09-24T15:27:42.556Z,66.55
2022-09-24T15:30:19.884Z,66.27
2022-09-24T15:32:51.208Z,65.99
2022-09-24T15:35:21.051Z,65.74
2022-09-24T15:37:50.249Z,65.30
2022-09-24T15:40:24.039Z,64.92
2022-09-24T15:42:54.052Z,64.75
2022-09-24T15:45:25.434Z,64.56
2022-09-24T15:47:55.377Z,64.61
2022-09-24T15:50:25.131Z,64.70
2022-09-24T15:52:56.306Z,64.50
2022-09-24T15:55:28.718Z,64.37
2022-09-24T15:57:58.038Z,64.22
2022-09-24T16:00:27.543Z,64.21
2022-09-24T16:02:58.317Z,64.26
2022-09-24T16:05:27.538Z,63.99
2022-09-24T16:07:56.989Z,64.00
2022-09-24T16:10:27.825Z,64.10
2022-09-24T16:12:56.990Z,63.78
2022-09-24T16:15:26.119Z,63.74
2022-09-24T16:17:55.121Z,63.58
2022-09-24T16:20:24.321Z,63.60
2022-09-24T16:22:53.354Z,63.27
2022-09-24T16:25:22.337Z,63.35
2022-09-24T16:27:52.803Z,63.18
2022-09-24T16:30:24.013Z,63.21
2022-09-24T16:32:53.362Z,63.15
2022-09-24T16:35:24.378Z,63.05
2022-09-24T16:37:53.660Z,62.90
2022-09-24T16:40:22.805Z,62.85
2022-09-24T16:42:53.340Z,62.92
2022-09-24T16:45:22.449Z,63.00
2022-09-24T16:47:51.664Z,62.74
2022-09-24T16:50:23.644Z,62.64
2022-09-24T16:52:54.970Z,62.64
2022-09-24T16:55:25.366Z,62.82
2022-09-24T16:57:56.106Z,62.74
2022-09-24T17:00:25.129Z,62.91
2022-09-24T17:02:54.198Z,62.96
2022-09-24T17:05:23.213Z,62.97
2022-09-24T17:07:52.202Z,62.77
2022-09-24T17:10:23.709Z,62.80
2022-09-24T17:12:57.256Z,63.00
2022-09-24T17:15:26.249Z,62.79
2022-09-24T17:17:55.203Z,62.87
2022-09-24T17:20:24.637Z,63.10
2022-09-24T17:22:53.615Z,63.07
2022-09-24T17:25:22.545Z,62.72
2022-09-24T17:27:51.628Z,62.81
2022-09-24T17:30:22.221Z,62.72
2022-09-24T17:32:52.253Z,62.80
2022-09-24T17:35:21.413Z,62.68
2022-09-24T17:37:50.829Z,62.85
2022-09-24T17:40:23.844Z,62.93
2022-09-24T17:42:53.891Z,62.78
2022-09-24T17:45:26.268Z,62.61
2022-09-24T17:47:58.654Z,62.78
2022-09-24T17:50:30.036Z,62.85
2022-09-24T17:53:00.027Z,62.85
2022-09-24T17:55:29.438Z,62.79
2022-09-24T17:57:58.431Z,62.96
2022-09-24T18:00:29.127Z,62.79
2022-09-24T18:02:58.465Z,62.84
2022-09-24T18:05:27.558Z,62.88
2022-09-24T18:07:56.683Z,62.83
2022-09-24T18:10:25.988Z,63.03
2022-09-24T18:12:55.926Z,62.97
2022-09-24T18:15:25.574Z,62.98
2022-09-24T18:17:56.821Z,63.07
2022-09-24T18:20:26.579Z,62.87
2022-09-24T18:22:55.894Z,63.16
2022-09-24T18:25:24.948Z,62.89
2022-09-24T18:27:55.578Z,62.90
2022-09-24T18:30:24.798Z,63.03
2022-09-24T18:32:55.362Z,62.95
2022-09-24T18:35:24.589Z,62.95
2022-09-24T18:37:53.840Z,62.95
2022-09-24T18:40:22.984Z,63.09
2022-09-24T18:42:52.085Z,62.96
2022-09-24T18:45:24.305Z,63.00
2022-09-24T18:47:55.696Z,63.03
2022-09-24T18:50:26.681Z,63.11
2022-09-24T18:52:56.011Z,63.12
2022-09-24T18:55:25.492Z,63.13
2022-09-24T18:57:54.532Z,63.09
2022-09-24T19:00:41.346Z,63.22
2022-09-24T19:03:10.842Z,63.19
2022-09-24T19:05:41.558Z,63.08
2022-09-24T19:08:11.458Z,63.21
2022-09-24T19:10:40.821Z,63.22
2022-09-24T19:13:09.986Z,63.12
2022-09-24T19:15:39.650Z,63.18
2022-09-24T19:18:09.806Z,63.15
2022-09-24T19:20:41.322Z,63.17
2022-09-24T19:23:10.941Z,63.13
2022-09-24T19:25:42.225Z,63.11
2022-09-24T19:28:14.229Z,63.11
2022-09-24T19:30:46.432Z,63.09
2022-09-24T19:33:17.489Z,63.14
2022-09-24T19:35:57.760Z,63.20
2022-09-24T19:38:29.562Z,63.27
2022-09-24T19:41:00.921Z,63.30
2022-09-24T19:43:31.177Z,63.21
2022-09-24T19:46:02.290Z,63.39
2022-09-24T19:48:33.663Z,63.45
2022-09-24T19:51:06.215Z,63.41
2022-09-24T19:53:35.961Z,63.34
2022-09-24T19:56:05.804Z,63.31
2022-09-24T19:58:36.785Z,63.38
2022-09-24T20:01:07.842Z,63.47
2022-09-24T20:03:38.329Z,63.46
2022-09-24T20:06:11.443Z,63.40
2022-09-24T20:08:41.353Z,63.50
2022-09-24T20:11:12.279Z,63.46
2022-09-24T20:13:46.461Z,63.56
2022-09-24T20:16:19.756Z,63.52
2022-09-24T20:18:49.212Z,63.59
2022-09-24T20:21:20.394Z,63.56
2022-09-24T20:23:50.303Z,63.66
2022-09-24T20:26:38.932Z,63.50
2022-09-24T20:29:09.690Z,63.54
2022-09-24T20:31:41.928Z,63.63
2022-09-24T20:34:11.123Z,63.70
2022-09-24T20:36:41.801Z,63.66
2022-09-24T20:39:10.791Z,63.66
2022-09-24T20:41:39.800Z,63.71
2022-09-24T20:44:08.983Z,63.72
2022-09-24T20:46:39.202Z,63.85
2022-09-24T20:49:08.496Z,63.90
2022-09-24T20:51:38.784Z,63.81
2022-09-24T20:54:09.219Z,63.93
2022-09-24T20:56:38.424Z,63.94
2022-09-24T20:59:07.782Z,64.01
2022-09-24T21:01:37.085Z,63.93
2022-09-24T21:04:07.368Z,63.96
2022-09-24T21:06:38.143Z,63.91
2022-09-24T21:09:08.666Z,64.05
2022-09-24T21:11:37.813Z,64.04
2022-09-24T21:14:06.916Z,64.15
2022-09-24T21:16:36.491Z,64.22
2022-09-24T21:19:08.052Z,64.19
2022-09-24T21:21:39.753Z,64.16
2022-09-24T21:24:13.502Z,64.33
2022-09-24T21:26:44.888Z,64.31
2022-09-24T21:29:17.454Z,64.29
2022-09-24T21:31:47.986Z,64.42
2022-09-24T21:34:20.716Z,64.37
2022-09-24T21:36:50.132Z,64.46
2022-09-24T21:39:23.096Z,64.41
2022-09-24T21:41:55.399Z,64.34
2022-09-24T21:44:24.571Z,64.38
2022-09-24T21:46:54.350Z,64.35
2022-09-24T21:49:23.211Z,64.25
2022-09-24T21:51:57.632Z,64.33
2022-09-24T21:54:30.402Z,64.42
2022-09-24T21:56:59.428Z,64.29
2022-09-24T21:59:46.356Z,64.39
2022-09-24T22:02:15.539Z,64.56
2022-09-24T22:04:45.031Z,64.44
2022-09-24T22:07:14.143Z,64.19
2022-09-24T22:09:44.452Z,64.47
2022-09-24T22:12:13.714Z,64.39
2022-09-24T22:14:42.800Z,64.24
2022-09-24T22:17:11.805Z,64.42
2022-09-24T22:19:41.012Z,64.42
2022-09-24T22:22:09.911Z,64.41
2022-09-24T22:24:38.952Z,64.36
2022-09-24T22:27:09.455Z,64.42
2022-09-24T22:29:38.393Z,64.42
2022-09-24T22:32:07.768Z,64.34
2022-09-24T22:34:54.117Z,64.38
2022-09-24T22:37:23.302Z,64.37
2022-09-24T22:39:52.584Z,64.47
2022-09-24T22:42:22.870Z,64.49
2022-09-24T22:44:51.911Z,64.52
2022-09-24T22:47:21.016Z,64.42
2022-09-24T22:49:49.979Z,64.43
2022-09-24T22:52:18.996Z,64.46
2022-09-24T22:54:48.515Z,64.45
2022-09-24T22:57:17.762Z,64.44
2022-09-24T22:59:48.133Z,64.57
2022-09-24T23:02:17.279Z,64.65
2022-09-24T23:04:46.292Z,64.65
2022-09-24T23:07:16.470Z,64.63
2022-09-24T23:09:45.713Z,64.63
2022-09-24T23:12:15.114Z,64.70
2022-09-24T23:14:44.073Z,64.76
2022-09-24T23:17:14.703Z,64.74
2022-09-24T23:19:49.607Z,64.83
2022-09-24T23:22:19.311Z,64.78
2022-09-24T23:24:50.477Z,64.77
2022-09-24T23:27:20.269Z,64.83
2022-09-24T23:29:49.083Z,64.75
2022-09-24T23:32:19.916Z,64.95
2022-09-24T23:34:49.285Z,64.95
2022-09-24T23:37:18.193Z,65.02
2022-09-24T23:39:47.186Z,65.14
2022-09-24T23:42:16.448Z,65.11
2022-09-24T23:44:45.958Z,65.10
2022-09-24T23:47:14.899Z,65.00
2022-09-24T23:49:45.474Z,65.13
2022-09-24T23:52:14.619Z,65.07
2022-09-24T23:54:43.545Z,65.14
2022-09-24T23:57:12.662Z,65.08
2022-09-24T23:59:41.608Z,65.15
